Latest Weather Observations for Grafton Airport

IDN60801

Issued at 9:32 pm EDT Monday 10 December 2018 (issued every 10 minutes, with the page automatically refreshed every 10 minutes)

About weather observations | Map of weather stations | Latest weather observations for NSW | Other Formats
Station Details ID: 058161 Name: GRAFTON AIRPORT AWS Lat: -29.76 Lon: 153.03 Height: 25.09 m
Data from the previous 72 hours. | See also: Recent months at Grafton Airport
Date/Time
EDT
Temp
°C
App
Temp
°C
Dew
Point
°C
Rel
Hum
%
Delta-T
°C
Wind Press
QNH
hPa
Press
MSL
hPa
Rain since
9am
mm
Dir  Spd
km/h
Gust
km/h
Spd
kts
Gust
kts
10/09:30pm 22.2 24.0 18.4 79 2.4 E 6 7 3 4 1016.5 1016.4 0.0
10/09:00pm 22.3 23.4 18.1 77 2.6 NE 9 11 5 6 1016.3 1016.2 0.0
10/08:30pm 22.9 24.0 18.0 74 3.1 ENE 9 13 5 7 1016.2 1016.1 0.0
10/08:00pm 23.5 24.2 17.9 71 3.5 ENE 11 15 6 8 1015.7 1015.6 0.0
10/07:30pm 24.1 23.8 17.4 66 4.2 ENE 15 22 8 12 1015.0 1014.9 0.0
10/07:00pm 24.8 23.6 17.0 62 4.8 NE 19 24 10 13 1014.4 1014.3 0.0
10/06:30pm 25.7 24.8 16.8 58 5.5 NE 17 22 9 12 1013.9 1013.8 0.0
10/06:00pm 26.5 25.4 17.3 57 5.8 NE 19 24 10 13 1013.4 1013.3 0.0
10/05:30pm 27.6 26.6 17.5 54 6.4 ENE 19 28 10 15 1013.1 1013.0 0.0
10/05:00pm 28.4 27.4 17.9 53 6.7 NE 20 28 11 15 1013.0 1012.9 0.0
10/04:30pm 28.1 26.4 17.3 52 6.8 NE 22 30 12 16 1012.9 1012.8 0.0
10/04:00pm 28.7 26.4 16.6 48 7.6 NE 24 32 13 17 1013.0 1012.9 0.0
10/03:30pm 30.3 28.8 16.7 44 8.5 NNE 20 28 11 15 1013.0 1012.9 0.0
10/03:00pm 30.6 28.7 15.1 39 9.5 N 19 28 10 15 1013.0 1012.9 0.0
10/02:30pm 31.9 30.1 14.5 34 10.6 NNE 17 30 9 16 1013.3 1013.2 0.0
10/02:00pm 30.0 28.3 13.7 37 9.8 N 15 24 8 13 1013.8 1013.7 0.0
10/01:30pm 30.7 28.8 14.3 36 10.0 NNE 17 35 9 19 1014.0 1013.9 0.0
10/01:00pm 30.1 28.9 15.0 40 9.2 NE 15 24 8 13 1014.5 1014.4 0.0
10/12:30pm 29.3 28.1 16.1 44 8.2 NNE 17 24 9 13 1014.9 1014.8 0.0
10/12:00pm 28.6 27.2 15.5 45 8.0 NNE 17 26 9 14 1015.3 1015.2 0.0
10/11:30am 27.6 26.2 15.6 48 7.3 NE 17 32 9 17 1015.6 1015.5 0.0
10/11:00am 27.2 26.2 15.6 49 7.1 N 15 24 8 13 1016.0 1015.9 0.0
10/10:30am 27.1 25.6 16.4 52 6.6 NNE 19 26 10 14 1016.1 1016.0 0.0
10/10:00am 25.9 24.1 15.9 54 6.1 NNE 20 30 11 16 1016.7 1016.6 0.0
10/09:30am 24.6 23.8 16.1 59 5.2 N 15 22 8 12 1016.9 1016.8 0.0
10/09:00am 24.0 23.9 17.0 65 4.3 N 13 19 7 10 1017.0 1016.9 0.0
10/08:30am 22.6 23.8 17.3 72 3.3 N 7 9 4 5 1017.1 1017.0 0.0
10/08:00am 21.2 22.8 17.8 81 2.1 NNE 6 9 3 5 1017.1 1017.0 0.0
10/07:30am 19.9 22.8 18.2 90 1.1 CALM 0 0 0 0 1016.9 1016.8 0.0
10/07:00am 17.7 20.3 17.5 99 0.1 CALM 0 0 0 0 1016.7 1016.6 0.0
10/06:30am 16.2 18.2 16.0 99 0.1 CALM 0 0 0 0 1016.5 1016.4 0.0
10/06:00am 15.6 17.4 15.4 99 0.1 CALM 0 0 0 0 1016.3 1016.2 0.0
10/05:30am 15.5 17.1 15.0 97 0.3 CALM 0 0 0 0 1016.4 1016.3 0.0
10/05:00am 16.2 17.1 16.0 99 0.1 SSE 6 6 3 3 1016.1 1016.0 0.0
10/04:30am 15.9 17.6 15.1 95 0.5 CALM 0 0 0 0 1016.0 1015.9 0.0
10/04:00am 16.4 18.1 15.3 93 0.6 CALM 0 0 0 0 1016.0 1015.9 0.0
10/03:30am 16.8 18.8 16.0 95 0.5 CALM 0 6 0 3 1016.1 1016.0 0.0
10/03:00am 17.1 17.8 16.1 94 0.6 S 7 7 4 4 1016.4 1016.3 0.0
10/02:30am 17.2 17.8 15.9 92 0.8 SSW 7 9 4 5 1016.8 1016.7 0.0
10/02:00am 17.8 19.7 15.8 88 1.2 CALM 0 0 0 0 1017.0 1016.9 0.0
10/01:30am 18.7 20.7 16.1 85 1.5 CALM 0 0 0 0 1017.5 1017.4 0.0
10/01:00am 18.7 20.6 15.8 83 1.7 CALM 0 0 0 0 1018.1 1018.0 0.0
10/12:30am 19.6 21.6 16.1 80 2.1 CALM 0 0 0 0 1018.5 1018.4 0.0
10/12:00am 20.2 21.3 16.6 80 2.2 SE 6 7 3 4 1018.7 1018.6 0.0
 
Date/Time
EDT
Temp
°C
App
Temp
°C
Dew
Point
°C
Rel
Hum
%
Delta-T
°C
Wind Press
QNH
hPa
Press
MSL
hPa
Rain since
9am
mm
Dir  Spd
km/h
Gust
km/h
Spd
kts
Gust
kts
09/11:30pm 20.2 21.0 16.4 79 2.3 SSW 7 9 4 5 1018.8 1018.7 0.0
09/11:00pm 19.9 20.8 16.5 81 2.0 SSW 7 9 4 5 1019.0 1018.9 0.0
09/10:30pm 19.5 20.4 16.5 83 1.8 SSW 7 9 4 5 1018.8 1018.7 0.0
09/10:00pm 19.5 21.5 16.0 80 2.1 CALM 0 0 0 0 1018.4 1018.3 0.0
09/09:30pm 20.0 21.8 15.6 76 2.6 CALM 0 0 0 0 1018.2 1018.1 0.0
09/09:00pm 21.0 22.2 16.0 73 3.0 ENE 4 7 2 4 1018.0 1017.9 0.0
09/08:30pm 21.2 21.4 15.7 71 3.3 ENE 9 11 5 6 1017.7 1017.6 0.0
09/08:00pm 21.9 21.8 16.0 69 3.5 NE 11 15 6 8 1017.7 1017.6 0.0
09/07:30pm 22.7 21.8 15.8 65 4.2 NE 15 20 8 11 1017.3 1017.2 0.0
09/07:00pm 23.7 22.0 15.7 61 4.8 NE 19 26 10 14 1017.2 1017.1 0.0
09/06:30pm 24.7 22.7 15.6 57 5.5 ENE 20 28 11 15 1016.6 1016.5 0.0
09/06:00pm 25.4 23.3 15.1 53 6.2 NE 20 28 11 15 1016.4 1016.3 0.0
09/05:30pm 26.2 24.2 15.6 52 6.5 ENE 20 28 11 15 1016.4 1016.3 0.0
09/05:00pm 26.8 24.8 15.5 50 6.9 NE 20 30 11 16 1016.4 1016.3 0.0
09/04:30pm 27.5 26.2 15.8 48 7.2 NE 17 24 9 13 1016.5 1016.4 0.0
09/04:00pm 27.3 25.5 16.0 50 6.9 ENE 20 30 11 16 1016.8 1016.7 0.0
09/03:30pm 27.3 26.0 15.7 49 7.1 E 17 22 9 12 1017.0 1016.9 0.0
09/03:00pm 27.9 27.1 15.2 46 7.7 E 13 20 7 11 1017.3 1017.2 0.0
09/02:30pm 27.5 27.0 15.8 48 7.2 NNE 13 24 7 13 1017.6 1017.5 0.0
09/02:00pm 27.0 26.8 14.7 47 7.4 NNE 9 15 5 8 1017.8 1017.7 0.0
09/01:30pm 26.6 26.5 15.0 49 7.0 NNE 9 15 5 8 1018.1 1018.0 0.0
09/01:00pm 26.4 25.0 13.5 45 7.6 NNE 13 19 7 10 1018.6 1018.5 0.0
09/12:30pm 25.4 24.2 15.1 53 6.2 N 15 22 8 12 1018.9 1018.8 0.0
09/12:00pm 25.9 25.9 15.3 52 6.4 N 9 17 5 9 1019.2 1019.1 0.0
09/11:30am 24.9 25.0 15.5 56 5.7 NNE 9 15 5 8 1019.6 1019.5 0.0
09/11:00am 24.5 24.7 15.7 58 5.3 NNE 9 15 5 8 1019.8 1019.7 0.0
09/10:30am 24.3 23.8 16.0 60 5.0 N 13 20 7 11 1019.9 1019.8 0.0
09/10:00am 23.5 24.4 16.1 63 4.5 N 6 11 3 6 1020.2 1020.1 0.0
09/09:30am 21.4 21.5 16.4 73 3.0 NE 11 15 6 8 1020.5 1020.4 0.0
09/09:00am 22.7 23.8 15.5 64 4.3 NW 4 7 2 4 1020.2 1020.1 0.0
09/08:30am 21.7 22.2 15.5 68 3.7 SW 7 9 4 5 1020.1 1020.0 0.0
09/08:00am 19.9 20.6 15.5 76 2.6 S 6 9 3 5 1020.4 1020.3 0.0
09/07:30am 17.4 17.5 15.6 89 1.1 SW 9 11 5 6 1020.2 1020.1 0.0
09/07:00am 15.8 16.7 15.0 95 0.5 WSW 4 7 2 4 1020.2 1020.1 0.0
09/06:30am 14.6 16.0 14.4 99 0.1 CALM 0 0 0 0 1020.0 1019.9 0.0
09/06:00am 14.0 14.4 13.7 98 0.2 SW 4 6 2 3 1019.8 1019.7 0.0
09/05:30am 14.4 14.3 13.9 97 0.3 SSW 7 9 4 5 1019.6 1019.5 0.0
09/05:00am 14.4 14.3 13.8 96 0.3 SSW 7 11 4 6 1019.3 1019.2 0.0
09/04:30am 15.0 15.1 14.0 94 0.6 SSW 6 7 3 4 1019.5 1019.4 0.0
09/04:00am 14.8 14.3 13.7 93 0.6 S 9 11 5 6 1019.4 1019.3 0.0
09/03:30am 15.7 15.9 14.7 94 0.6 SSW 7 9 4 5 1019.7 1019.6 0.0
09/03:00am 15.2 15.3 13.9 92 0.7 SW 6 7 3 4 1019.9 1019.8 0.0
09/02:30am 15.4 15.4 13.6 89 1.0 SSW 6 7 3 4 1020.0 1019.9 0.0
09/02:00am 16.0 15.9 14.0 88 1.1 S 7 9 4 5 1020.2 1020.1 0.0
09/01:30am 16.4 16.6 14.1 86 1.3 SSW 6 9 3 5 1021.0 1020.9 0.0
09/01:00am 17.2 18.5 14.1 82 1.8 CALM 0 0 0 0 1021.5 1021.4 0.0
09/12:30am 17.7 19.0 14.2 80 2.0 CALM 0 0 0 0 1021.8 1021.7 0.0
09/12:00am 18.2 19.6 14.5 79 2.1 CALM 0 0 0 0 1022.0 1021.9 0.0
 
Date/Time
EDT
Temp
°C
App
Temp
°C
Dew
Point
°C
Rel
Hum
%
Delta-T
°C
Wind Press
QNH
hPa
Press
MSL
hPa
Rain since
9am
mm
Dir  Spd
km/h
Gust
km/h
Spd
kts
Gust
kts
08/11:30pm 18.2 19.6 14.5 79 2.1 CALM 0 0 0 0 1022.5 1022.4 0.0
08/11:00pm 18.6 20.1 14.7 78 2.3 CALM 0 0 0 0 1022.7 1022.6 0.0
08/10:30pm 18.0 18.5 13.9 77 2.3 SSW 4 6 2 3 1022.6 1022.5 0.0
08/10:00pm 18.6 19.9 14.1 75 2.6 CALM 0 0 0 0 1022.7 1022.6 0.0
08/09:30pm 19.2 19.4 14.2 73 2.9 S 6 9 3 5 1022.6 1022.5 0.0
08/09:18pm 19.0 20.3 14.1 73 2.8 CALM 0 0 0 0 1022.6 1022.5 0.0
08/09:03pm 19.3 20.5 13.9 71 3.1 CALM 0 0 0 0 1022.5 1022.4 0.0
08/09:00pm 19.4 20.6 13.8 70 3.2 CALM 0 0 0 0 1022.4 1022.3 0.0
08/08:30pm 20.4 20.5 13.8 66 3.8 ENE 6 7 3 4 1022.1 1022.0 0.0
08/08:00pm 21.0 21.0 13.7 63 4.2 E 6 11 3 6 1021.8 1021.7 0.0
08/07:30pm 21.7 21.6 13.9 61 4.5 E 7 11 4 6 1021.7 1021.6 0.0
08/07:00pm 22.2 21.3 13.8 59 4.9 ENE 11 17 6 9 1021.4 1021.3 0.0
08/06:30pm 22.5 21.4 14.4 60 4.8 NE 13 15 7 8 1021.0 1020.9 0.0
08/06:00pm 22.7 21.0 13.7 56 5.2 NE 15 22 8 12 1020.8 1020.7 0.0
08/05:30pm 22.6 21.7 13.7 57 5.2 ENE 11 17 6 9 1020.6 1020.5 0.0
08/05:00pm 22.8 20.8 13.8 57 5.2 ENE 17 22 9 12 1020.5 1020.4 0.0
08/04:30pm 23.2 21.2 13.9 56 5.4 ENE 17 26 9 14 1020.3 1020.2 0.0
08/04:00pm 23.4 21.0 13.8 54 5.6 NE 19 32 10 17 1020.2 1020.1 0.0
08/03:30pm 23.4 20.4 13.8 54 5.6 NE 22 32 12 17 1020.3 1020.2 0.0
08/03:00pm 24.9 22.2 13.5 49 6.7 ENE 20 30 11 16 1020.2 1020.1 0.0
08/02:30pm 26.3 23.8 14.1 47 7.3 ENE 20 30 11 16 1020.5 1020.4 0.0
08/02:00pm 27.0 24.7 14.1 45 7.7 NE 19 35 10 19 1020.5 1020.4 0.0
08/01:30pm 27.5 25.4 14.8 45 7.7 ENE 19 30 10 16 1021.0 1020.9 0.0
08/01:00pm 25.6 23.3 13.1 46 7.3 E 17 26 9 14 1021.4 1021.3 0.0
08/12:30pm 25.8 23.9 13.0 45 7.5 ENE 15 24 8 13 1021.6 1021.5 0.0
08/12:00pm 25.4 23.2 13.3 47 7.1 E 17 28 9 15 1021.9 1021.8 0.0
08/11:30am 25.1 23.7 13.3 48 6.9 SE 13 24 7 13 1022.2 1022.1 0.0
08/11:00am 24.4 22.8 12.7 48 6.7 ENE 13 19 7 10 1022.5 1022.4 0.0
08/10:30am 24.8 23.3 13.0 47 6.8 ENE 13 22 7 12 1022.5 1022.4 0.0
08/10:00am 25.0 24.8 14.8 53 6.1 E 9 15 5 8 1022.8 1022.7 0.0
08/09:30am 23.8 22.5 14.8 57 5.4 E 15 22 8 12 1022.8 1022.7 0.0
08/09:00am 22.6 22.9 15.0 62 4.5 SSE 7 15 4 8 1023.0 1022.9 0.2
08/08:30am 21.3 21.1 14.7 66 3.9 S 9 11 5 6 1023.0 1022.9 0.2
08/08:00am 19.8 20.1 15.0 74 2.8 SW 7 9 4 5 1022.9 1022.8 0.2
08/07:30am 19.0 19.5 15.1 78 2.3 SW 6 7 3 4 1022.7 1022.6 0.2
08/07:00am 17.4 17.6 14.7 84 1.6 SW 7 9 4 5 1022.4 1022.3 0.2
08/06:30am 16.7 16.7 14.3 86 1.4 SW 7 9 4 5 1022.3 1022.2 0.2
08/06:00am 16.3 16.3 14.3 88 1.1 SSW 7 9 4 5 1022.1 1022.0 0.2
08/05:30am 15.9 15.9 13.7 87 1.2 SW 6 7 3 4 1021.9 1021.8 0.2
08/05:00am 15.9 15.7 13.7 87 1.2 SW 7 9 4 5 1021.8 1021.7 0.2
08/04:30am 16.4 16.6 14.1 86 1.3 SW 6 9 3 5 1021.8 1021.7 0.2
08/04:00am 16.1 16.1 14.1 88 1.1 SSW 7 9 4 5 1021.6 1021.5 0.2
08/03:30am 16.2 16.3 14.0 87 1.2 SSW 6 7 3 4 1021.8 1021.7 0.2
08/03:00am 16.4 16.3 13.9 85 1.4 SSW 7 7 4 4 1022.1 1022.0 0.2
08/02:30am 16.7 16.8 14.0 84 1.5 SSW 6 9 3 5 1022.3 1022.2 0.2
08/02:00am 16.5 16.4 14.0 85 1.4 SSW 7 9 4 5 1022.7 1022.6 0.2
08/01:30am 16.3 16.2 13.8 85 1.4 SSW 7 9 4 5 1022.9 1022.8 0.2
08/01:00am 16.4 16.3 13.9 85 1.4 SSW 7 9 4 5 1023.2 1023.1 0.2
08/12:30am 16.3 16.2 14.0 86 1.3 SSW 7 11 4 6 1023.4 1023.3 0.2
08/12:00am 16.0 16.3 13.5 85 1.4 SW 4 9 2 5 1023.6 1023.5 0.2
 
Date/Time
EDT
Temp
°C
App
Temp
°C
Dew
Point
°C
Rel
Hum
%
Delta-T
°C
Wind Press
QNH
hPa
Press
MSL
hPa
Rain since
9am
mm
Dir  Spd
km/h
Gust
km/h
Spd
kts
Gust
kts
07/11:30pm 16.5 15.9 13.6 83 1.6 SSW 9 11 5 6 1023.8 1023.7 0.2
07/11:00pm 16.5 16.4 13.2 81 1.8 SSW 6 7 3 4 1024.0 1023.9 0.2
07/10:30pm 17.3 17.1 13.6 79 2.1 S 7 9 4 5 1024.0 1023.9 0.2
07/10:00pm 17.8 17.6 13.5 76 2.4 S 7 9 4 5 1024.0 1023.9 0.2

Other Formats:

Comma delimited format used in spreadsheet applications
http://www.bom.gov.au/fwo/IDN60801/IDN60801.95570.axf

JavaScript Object Notation format (JSON) in row-major order
http://www.bom.gov.au/fwo/IDN60801/IDN60801.95570.json